createdAt,value
2023-10-01T00:00:04.034Z,11.255
2023-10-01T00:05:03.847Z,9.821
2023-10-01T00:10:03.871Z,12.651
2023-10-01T00:15:03.611Z,13.297
2023-10-01T00:20:04.413Z,15.064
2023-10-01T00:25:04.597Z,14.144
2023-10-01T00:30:04.513Z,13.219
2023-10-01T00:35:04.361Z,15.237
2023-10-01T00:40:04.197Z,12.473
2023-10-01T00:45:03.908Z,13.961
2023-10-01T00:50:03.712Z,10.716
2023-10-01T00:55:04.686Z,12.232
2023-10-01T01:00:03.935Z,12.156
2023-10-01T01:05:03.729Z,12.786
2023-10-01T01:10:04.891Z,12.237
2023-10-01T01:15:03.559Z,11.207
2023-10-01T01:20:03.637Z,14.192
2023-10-01T01:25:05.038Z,12.907
2023-10-01T01:30:03.982Z,9.907
2023-10-01T01:35:03.787Z,11.602
2023-10-01T01:40:04.703Z,9.518
2023-10-01T01:45:04.474Z,9.936
2023-10-01T01:50:04.248Z,11.872
2023-10-01T01:55:04.257Z,9.729
2023-10-01T02:00:03.999Z,11.096
2023-10-01T02:05:04.069Z,13.792
2023-10-01T02:10:03.995Z,13.523
2023-10-01T02:15:03.802Z,10.349
2023-10-01T02:20:03.743Z,8.139
2023-10-01T02:25:04.596Z,9.252
2023-10-01T02:30:04.249Z,9.397
2023-10-01T02:35:03.967Z,7.374
2023-10-01T02:40:03.734Z,10.667
2023-10-01T02:45:04.491Z,7.817
2023-10-01T02:50:04.237Z,9.45
2023-10-01T02:55:04.217Z,8.327
2023-10-01T03:00:04.110Z,10.013
2023-10-01T03:05:03.978Z,10.234
2023-10-01T03:10:03.803Z,8.087
2023-10-01T03:15:03.613Z,11.042
2023-10-01T03:20:04.848Z,10.413
2023-10-01T03:25:03.817Z,8.948
2023-10-01T03:30:04.522Z,9.286
2023-10-01T03:35:04.198Z,7.331
2023-10-01T03:40:04.109Z,10.104
2023-10-01T03:45:03.777Z,9.064
2023-10-01T03:50:03.553Z,7.61
2023-10-01T03:55:04.391Z,9.377
2023-10-01T04:00:04.063Z,9.594
2023-10-01T04:05:03.985Z,9.396
2023-10-01T04:10:03.975Z,9.035
2023-10-01T04:15:04.175Z,8.559
2023-10-01T04:20:04.306Z,5.435
2023-10-01T04:25:04.281Z,6.185
2023-10-01T04:30:04.013Z,6.498
2023-10-01T04:35:03.801Z,6.421
2023-10-01T04:40:04.281Z,7.799
2023-10-01T04:45:04.071Z,6.224
2023-10-01T04:50:04.149Z,5.236
2023-10-01T04:55:24.587Z,5.993
2023-10-01T05:00:04.426Z,5.877
2023-10-01T05:05:04.217Z,4.996
2023-10-01T05:10:03.940Z,7.846
2023-10-01T05:15:03.928Z,6.47
2023-10-01T05:20:03.892Z,4.322
2023-10-01T05:25:04.252Z,7.577
2023-10-01T05:30:03.912Z,5.632
2023-10-01T05:35:03.788Z,4
2023-10-01T05:40:15.011Z,5.872
2023-10-01T05:45:03.862Z,4.582
2023-10-01T05:50:04.267Z,4.958
2023-10-01T05:55:04.927Z,6.633
2023-10-01T06:00:03.955Z,4.621
2023-10-01T06:05:03.761Z,3.74
2023-10-01T06:10:03.907Z,4.067
2023-10-01T06:15:03.657Z,4.096
2023-10-01T06:20:03.672Z,4.779
2023-10-01T06:25:04.164Z,5.092
2023-10-01T06:30:03.857Z,5.174
2023-10-01T06:35:03.755Z,4.365
2023-10-01T06:40:04.708Z,3.904
2023-10-01T06:45:03.553Z,4.592
2023-10-01T06:50:04.564Z,4.524
2023-10-01T06:55:04.695Z,5.916
2023-10-01T07:00:03.786Z,5.064
2023-10-01T07:05:20.691Z,3.995
2023-10-01T07:10:04.157Z,4.25
2023-10-01T07:15:03.935Z,2.459
2023-10-01T07:20:04.216Z,3.47
2023-10-01T07:25:03.954Z,5.275
2023-10-01T07:30:04.255Z,4.376
2023-10-01T07:35:04.625Z,2.435
2023-10-01T07:40:04.736Z,2.859
2023-10-01T07:45:03.653Z,1.9
2023-10-01T07:50:03.590Z,3.422
2023-10-01T07:55:03.954Z,4.163
2023-10-01T08:00:04.008Z,2.661
2023-10-01T08:05:04.174Z,3.437
2023-10-01T08:10:04.245Z,2.319
2023-10-01T08:15:03.897Z,2.146
2023-10-01T08:20:03.839Z,3.253
2023-10-01T08:25:04.702Z,2.431
2023-10-01T08:30:04.463Z,3.032
2023-10-01T08:35:04.435Z,3.86
2023-10-01T08:40:04.485Z,3.109
2023-10-01T08:45:04.165Z,2.03
2023-10-01T08:50:04.138Z,2.868
2023-10-01T08:55:04.062Z,2.873
2023-10-01T09:00:03.943Z,1.444
2023-10-01T09:05:03.913Z,1.881
2023-10-01T09:10:04.326Z,3.831
2023-10-01T09:15:03.650Z,2.628
2023-10-01T09:20:04.131Z,2.142
2023-10-01T09:25:04.580Z,2.368
2023-10-01T09:30:04.541Z,2.246
2023-10-01T09:35:03.584Z,3.913
2023-10-01T09:40:04.566Z,2.315
2023-10-01T09:45:04.513Z,2.695
2023-10-01T09:50:04.528Z,2.383
2023-10-01T09:55:04.675Z,2.864
2023-10-01T10:00:04.114Z,3.394
2023-10-01T10:05:04.724Z,3.133
2023-10-01T10:10:04.337Z,3.205
2023-10-01T10:15:04.374Z,2.223
2023-10-01T10:20:04.415Z,4.578
2023-10-01T10:25:04.785Z,3.731
2023-10-01T10:30:04.228Z,4.991
2023-10-01T10:35:03.996Z,3.696
2023-10-01T10:40:04.557Z,2.195
2023-10-01T10:45:04.105Z,2.022
2023-10-01T10:50:04.448Z,3.297
2023-10-01T10:55:03.896Z,3.004
2023-10-01T11:00:04.339Z,1.973
2023-10-01T11:05:04.184Z,1.934
2023-10-01T11:10:03.807Z,1.444
2023-10-01T11:15:04.004Z,1.732
2023-10-01T11:20:04.556Z,2.166
2023-10-01T11:25:06.098Z,5.838
2023-10-01T11:30:03.962Z,2.657
2023-10-01T11:35:03.944Z,4.827
2023-10-01T11:40:03.728Z,3.278
2023-10-01T11:45:03.600Z,3.398
2023-10-01T11:50:03.994Z,3.393
2023-10-01T11:55:03.831Z,4.192
2023-10-01T12:00:04.181Z,4.019
2023-10-01T12:05:04.218Z,3.253
2023-10-01T12:10:04.156Z,4.289
2023-10-01T12:15:03.973Z,4.433
2023-10-01T12:20:03.952Z,3.008
2023-10-01T12:25:03.766Z,2.435
2023-10-01T12:30:03.733Z,2.194
2023-10-01T12:35:04.571Z,2.267
2023-10-01T12:40:04.276Z,4.803
2023-10-01T12:45:04.045Z,4.506
2023-10-01T12:50:03.894Z,3.715
2023-10-01T12:55:03.657Z,3.976
2023-10-01T13:00:04.391Z,3.094
2023-10-01T13:05:04.171Z,4.404
2023-10-01T13:10:03.971Z,4.077
2023-10-01T13:15:03.745Z,7.919
2023-10-01T13:20:03.622Z,2.195
2023-10-01T13:25:04.392Z,3.373
2023-10-01T13:30:04.679Z,3.046
2023-10-01T13:35:04.521Z,5.141
2023-10-01T13:40:04.404Z,4.066
2023-10-01T13:45:04.253Z,2.936
2023-10-01T13:50:04.849Z,4.616
2023-10-01T13:55:03.957Z,6.676
2023-10-01T14:00:04.144Z,4.616
2023-10-01T14:05:04.403Z,3.393
2023-10-01T14:10:04.588Z,6.748
2023-10-01T14:15:04.401Z,5.9
2023-10-01T14:20:04.366Z,5.824
2023-10-01T14:25:04.035Z,4.514
2023-10-01T14:30:03.830Z,5.626
2023-10-01T14:35:03.754Z,4.471
2023-10-01T14:40:04.522Z,4.333
2023-10-01T14:45:04.291Z,4.573
2023-10-01T14:50:04.121Z,6.291
2023-10-01T14:55:04.039Z,5.107
2023-10-01T15:00:03.838Z,5.593
2023-10-01T15:05:04.076Z,3.87
2023-10-01T15:10:03.947Z,5.112
2023-10-01T15:16:28.417Z,4.688
2023-10-01T15:20:04.452Z,3.046
2023-10-01T15:25:04.041Z,5.603
2023-10-01T15:30:03.564Z,4.698
2023-10-01T15:35:04.005Z,5.218
2023-10-01T15:40:04.530Z,5.247
2023-10-01T15:45:03.665Z,5.622
2023-10-01T15:50:04.057Z,4.702
2023-10-01T15:55:04.291Z,6.517
2023-10-01T16:00:04.062Z,4.409
2023-10-01T16:05:04.642Z,3.22
2023-10-01T16:10:03.614Z,3.696
2023-10-01T16:15:03.896Z,5.588
2023-10-01T16:20:03.777Z,4.842
2023-10-01T16:25:03.773Z,5.579
2023-10-01T16:30:03.712Z,5.377
2023-10-01T16:35:03.719Z,4.553
2023-10-01T16:40:04.382Z,5.935
2023-10-01T16:45:03.490Z,5.939
2023-10-01T16:50:04.491Z,5.034
2023-10-01T16:55:04.183Z,3.46
2023-10-01T17:00:03.890Z,4.996
2023-10-01T17:05:03.863Z,6.427
2023-10-01T17:10:03.573Z,5.517
2023-10-01T17:15:04.269Z,6.189
2023-10-01T17:20:04.434Z,5.376
2023-10-01T17:25:04.101Z,6.922
2023-10-01T17:30:03.713Z,7.345
2023-10-01T17:35:04.709Z,5.28
2023-10-01T17:40:04.414Z,5.94
2023-10-01T17:45:04.241Z,5.675
2023-10-01T17:50:04.314Z,7.114
2023-10-01T17:55:05.395Z,4.26
2023-10-01T18:00:04.074Z,6.137
2023-10-01T18:05:04.158Z,6.883
2023-10-01T18:10:03.874Z,7.202
2023-10-01T18:15:03.653Z,4.915
2023-10-01T18:20:04.024Z,8.414
2023-10-01T18:25:03.853Z,3.985
2023-10-01T18:30:03.661Z,7.066
2023-10-01T18:35:04.540Z,5.814
2023-10-01T18:40:04.283Z,5.8
2023-10-01T18:45:03.952Z,6.196
2023-10-01T18:50:03.762Z,6.671
2023-10-01T18:55:03.748Z,7.038
2023-10-01T19:00:04.425Z,9.199
2023-10-01T19:05:04.450Z,7.808
2023-10-01T19:10:04.284Z,7.322
2023-10-01T19:15:04.192Z,7.322
2023-10-01T19:20:04.386Z,6.334
2023-10-01T19:25:04.179Z,9.493
2023-10-01T19:30:04.011Z,11.303
2023-10-01T19:35:03.958Z,10.788
2023-10-01T19:40:03.765Z,8.097
2023-10-01T19:45:03.585Z,9.546
2023-10-01T19:50:04.455Z,7.966
2023-10-01T19:55:04.291Z,9.33
2023-10-01T20:00:04.162Z,8.882
2023-10-01T20:05:04.264Z,8.443
2023-10-01T20:10:04.044Z,10.508
2023-10-01T20:15:03.752Z,11.539
2023-10-01T20:20:04.264Z,10.196
2023-10-01T20:25:04.055Z,9.792
2023-10-01T20:30:03.823Z,13.97
2023-10-01T20:35:03.754Z,17.278
2023-10-01T20:40:04.604Z,20.278
2023-10-01T20:45:04.232Z,15.911
2023-10-01T20:50:09.233Z,18.593
2023-10-01T20:55:04.097Z,16.103
2023-10-01T21:00:03.756Z,15.064
2023-10-01T21:05:03.776Z,11.722
2023-10-01T21:10:03.556Z,10.576
2023-10-01T21:15:04.369Z,9.175
2023-10-01T21:20:04.590Z,10.182
2023-10-01T21:25:04.366Z,12.752
2023-10-01T21:30:04.492Z,11.737
2023-10-01T21:35:04.412Z,10.191
2023-10-01T21:40:04.188Z,9.916
2023-10-01T21:45:04.008Z,9.916
2023-10-01T21:50:04.006Z,12.227
2023-10-01T21:55:03.755Z,9.122
2023-10-01T22:00:04.956Z,8.742
2023-10-01T22:05:04.115Z,9.3
2023-10-01T22:10:03.850Z,8.699
2023-10-01T22:15:03.573Z,9.271
2023-10-01T22:20:04.736Z,8.107
2023-10-01T22:25:03.697Z,7.678
2023-10-01T22:30:04.422Z,9.127
2023-10-01T22:35:04.338Z,8.107
2023-10-01T22:40:04.165Z,9.204
2023-10-01T22:45:03.941Z,5.275
2023-10-01T22:50:04.251Z,7.611
2023-10-01T22:55:04.032Z,6.903
2023-10-01T23:00:03.720Z,5.988
2023-10-01T23:05:03.970Z,8.289
2023-10-01T23:10:03.829Z,8.795
2023-10-01T23:15:04.503Z,8.877
2023-10-01T23:20:04.182Z,6.484
2023-10-01T23:25:04.129Z,7.307
2023-10-01T23:30:03.850Z,6.86
2023-10-01T23:35:04.147Z,7.736
2023-10-01T23:40:03.850Z,7.606
2023-10-01T23:45:04.466Z,6.074
2023-10-01T23:50:04.397Z,7.726
2023-10-01T23:55:04.114Z,8.703
